sensor_id;sensor_type;location;lat;lon;timestamp;pressure;altitude;pressure_sealevel;temperature;humidity
67738;BME280;54534;43.612;1.572;2022-08-01T00:00:01;99377.91;;;26.65;41.11
67738;BME280;54534;43.612;1.572;2022-08-01T00:02:27;99368.16;;;26.64;41.40
67738;BME280;54534;43.612;1.572;2022-08-01T00:04:54;99374.41;;;26.64;41.30
67738;BME280;54534;43.612;1.572;2022-08-01T00:07:20;99364.59;;;26.63;41.20
67738;BME280;54534;43.612;1.572;2022-08-01T00:09:45;99363.75;;;26.63;41.22
67738;BME280;54534;43.612;1.572;2022-08-01T00:12:11;99363.75;;;26.63;41.23
67738;BME280;54534;43.612;1.572;2022-08-01T00:14:36;99362.91;;;26.62;41.24
67738;BME280;54534;43.612;1.572;2022-08-01T00:17:02;99356.69;;;26.62;41.56
67738;BME280;54534;43.612;1.572;2022-08-01T00:19:28;99362.09;;;26.62;41.13
67738;BME280;54534;43.612;1.572;2022-08-01T00:21:53;99363.09;;;26.61;41.15
67738;BME280;54534;43.612;1.572;2022-08-01T00:24:19;99357.88;;;26.59;41.03
67738;BME280;54534;43.612;1.572;2022-08-01T00:26:44;99357.88;;;26.59;40.96
67738;BME280;54534;43.612;1.572;2022-08-01T00:29:09;99358.91;;;26.58;40.63
67738;BME280;54534;43.612;1.572;2022-08-01T00:31:35;99365.28;;;26.57;41.06
67738;BME280;54534;43.612;1.572;2022-08-01T00:34:00;99367.97;;;26.57;40.84
67738;BME280;54534;43.612;1.572;2022-08-01T00:36:25;99371.72;;;26.56;41.03
67738;BME280;54534;43.612;1.572;2022-08-01T00:38:51;99368.16;;;26.56;40.68
67738;BME280;54534;43.612;1.572;2022-08-01T00:41:16;99368.34;;;26.54;40.91
67738;BME280;54534;43.612;1.572;2022-08-01T00:43:43;99374.56;;;26.54;40.69
67738;BME280;54534;43.612;1.572;2022-08-01T00:46:08;99375.59;;;26.53;40.67
67738;BME280;54534;43.612;1.572;2022-08-01T00:48:34;99366.66;;;26.53;40.91
67738;BME280;54534;43.612;1.572;2022-08-01T00:50:59;99370.34;;;26.52;40.95
67738;BME280;54534;43.612;1.572;2022-08-01T00:53:25;99366.00;;;26.51;41.06
67738;BME280;54534;43.612;1.572;2022-08-01T00:55:50;99360.75;;;26.49;40.77
67738;BME280;54534;43.612;1.572;2022-08-01T00:58:16;99355.22;;;26.51;40.89
67738;BME280;54534;43.612;1.572;2022-08-01T01:00:42;99354.72;;;26.47;41.15
67738;BME280;54534;43.612;1.572;2022-08-01T01:03:07;99355.56;;;26.48;41.00
67738;BME280;54534;43.612;1.572;2022-08-01T01:05:45;99355.75;;;26.46;40.99
67738;BME280;54534;43.612;1.572;2022-08-01T01:08:23;99358.44;;;26.46;41.41
67738;BME280;54534;43.612;1.572;2022-08-01T01:10:56;99359.44;;;26.45;41.09
67738;BME280;54534;43.612;1.572;2022-08-01T01:13:43;99357.75;;;26.44;41.56
67738;BME280;54534;43.612;1.572;2022-08-01T01:16:13;99352.34;;;26.44;41.30
67738;BME280;54534;43.612;1.572;2022-08-01T01:18:49;99356.91;;;26.43;41.44
67738;BME280;54534;43.612;1.572;2022-08-01T01:24:08;99359.75;;;26.42;41.63
67738;BME280;54534;43.612;1.572;2022-08-01T01:26:52;99359.09;;;26.40;41.93
67738;BME280;54534;43.612;1.572;2022-08-01T01:32:16;99357.38;;;26.39;41.86
67738;BME280;54534;43.612;1.572;2022-08-01T01:34:44;99355.72;;;26.38;41.86
67738;BME280;54534;43.612;1.572;2022-08-01T01:37:14;99361.13;;;26.38;42.12
67738;BME280;54534;43.612;1.572;2022-08-01T01:39:42;99353.19;;;26.36;42.38
67738;BME280;54534;43.612;1.572;2022-08-01T01:42:09;99356.06;;;26.35;42.09
67738;BME280;54534;43.612;1.572;2022-08-01T01:44:36;99357.72;;;26.36;42.14
67738;BME280;54534;43.612;1.572;2022-08-01T01:47:03;99362.31;;;26.35;42.62
67738;BME280;54534;43.612;1.572;2022-08-01T01:49:29;99354.38;;;26.33;42.31
67738;BME280;54534;43.612;1.572;2022-08-01T01:51:57;99361.59;;;26.33;42.46
67738;BME280;54534;43.612;1.572;2022-08-01T01:54:37;99358.09;;;26.32;42.74
67738;BME280;54534;43.612;1.572;2022-08-01T01:57:05;99366.34;;;26.31;43.00
67738;BME280;54534;43.612;1.572;2022-08-01T01:59:34;99364.66;;;26.30;43.05
67738;BME280;54534;43.612;1.572;2022-08-01T02:02:03;99360.94;;;26.31;43.00
67738;BME280;54534;43.612;1.572;2022-08-01T02:04:30;99361.28;;;26.28;43.14
67738;BME280;54534;43.612;1.572;2022-08-01T02:06:59;99363.97;;;26.28;43.38
67738;BME280;54534;43.612;1.572;2022-08-01T02:09:26;99355.06;;;26.27;43.00
67738;BME280;54534;43.612;1.572;2022-08-01T02:11:53;99358.75;;;26.26;43.51
67738;BME280;54534;43.612;1.572;2022-08-01T02:14:19;99357.91;;;26.26;43.38
67738;BME280;54534;43.612;1.572;2022-08-01T02:16:48;99357.06;;;26.25;43.63
67738;BME280;54534;43.612;1.572;2022-08-01T02:19:16;99355.41;;;26.24;43.58
67738;BME280;54534;43.612;1.572;2022-08-01T02:21:54;99346.66;;;26.22;43.92
67738;BME280;54534;43.612;1.572;2022-08-01T02:24:41;99343.97;;;26.22;43.56
67738;BME280;54534;43.612;1.572;2022-08-01T02:27:10;99344.13;;;26.20;43.92
67738;BME280;54534;43.612;1.572;2022-08-01T02:29:49;99352.38;;;26.19;44.18
67738;BME280;54534;43.612;1.572;2022-08-01T02:32:23;99348.66;;;26.20;43.89
67738;BME280;54534;43.612;1.572;2022-08-01T02:34:50;99345.31;;;26.18;43.94
67738;BME280;54534;43.612;1.572;2022-08-01T02:37:17;99347.16;;;26.17;44.42
67738;BME280;54534;43.612;1.572;2022-08-01T02:39:45;99353.38;;;26.18;43.95
67738;BME280;54534;43.612;1.572;2022-08-01T02:42:14;99357.09;;;26.17;44.33
67738;BME280;54534;43.612;1.572;2022-08-01T02:44:42;99355.41;;;26.16;44.08
67738;BME280;54534;43.612;1.572;2022-08-01T02:47:09;99351.88;;;26.15;44.02
67738;BME280;54534;43.612;1.572;2022-08-01T02:49:39;99352.91;;;26.14;44.44
67738;BME280;54534;43.612;1.572;2022-08-01T02:52:08;99356.59;;;26.13;44.52
67738;BME280;54534;43.612;1.572;2022-08-01T02:54:34;99353.38;;;26.09;44.46
67738;BME280;54534;43.612;1.572;2022-08-01T02:57:03;99355.09;;;26.10;44.52
67738;BME280;54534;43.612;1.572;2022-08-01T02:59:31;99355.94;;;26.11;44.75
67738;BME280;54534;43.612;1.572;2022-08-01T03:01:59;99359.63;;;26.10;44.47
67738;BME280;54534;43.612;1.572;2022-08-01T03:04:27;99351.53;;;26.10;44.61
67738;BME280;54534;43.612;1.572;2022-08-01T03:06:54;99352.72;;;26.07;44.44
67738;BME280;54534;43.612;1.572;2022-08-01T03:09:20;99353.75;;;26.06;44.43
67738;BME280;54534;43.612;1.572;2022-08-01T03:11:48;99352.91;;;26.06;44.62
67738;BME280;54534;43.612;1.572;2022-08-01T03:14:15;99359.28;;;26.05;44.85
67738;BME280;54534;43.612;1.572;2022-08-01T03:16:44;99361.13;;;26.04;45.04
67738;BME280;54534;43.612;1.572;2022-08-01T03:19:12;99367.56;;;26.03;44.67
67738;BME280;54534;43.612;1.572;2022-08-01T03:21:40;99357.78;;;26.02;44.56
67738;BME280;54534;43.612;1.572;2022-08-01T03:24:07;99358.78;;;26.01;44.90
67738;BME280;54534;43.612;1.572;2022-08-01T03:26:34;99354.41;;;26.00;44.85
67738;BME280;54534;43.612;1.572;2022-08-01T03:29:08;99355.41;;;25.99;44.59
67738;BME280;54534;43.612;1.572;2022-08-01T03:31:36;99355.59;;;25.97;44.74
67738;BME280;54534;43.612;1.572;2022-08-01T03:34:03;99352.06;;;25.97;44.70
67738;BME280;54534;43.612;1.572;2022-08-01T03:36:31;99356.78;;;25.95;44.95
67738;BME280;54534;43.612;1.572;2022-08-01T03:39:01;99347.00;;;25.94;45.04
67738;BME280;54534;43.612;1.572;2022-08-01T03:41:32;99348.84;;;25.93;44.88
67738;BME280;54534;43.612;1.572;2022-08-01T03:44:05;99339.94;;;25.93;45.00
67738;BME280;54534;43.612;1.572;2022-08-01T03:46:36;99332.03;;;25.91;45.27
67738;BME280;54534;43.612;1.572;2022-08-01T03:49:07;99343.81;;;25.90;45.07
67738;BME280;54534;43.612;1.572;2022-08-01T03:51:36;99334.91;;;25.90;44.96
67738;BME280;54534;43.612;1.572;2022-08-01T03:54:04;99338.59;;;25.88;45.29
67738;BME280;54534;43.612;1.572;2022-08-01T03:56:31;99340.63;;;25.86;45.35
67738;BME280;54534;43.612;1.572;2022-08-01T03:58:59;99343.31;;;25.86;44.92
67738;BME280;54534;43.612;1.572;2022-08-01T04:01:26;99351.56;;;25.85;45.06
67738;BME280;54534;43.612;1.572;2022-08-01T04:03:53;99346.34;;;25.83;45.44
67738;BME280;54534;43.612;1.572;2022-08-01T04:06:18;99357.09;;;25.83;45.27
67738;BME280;54534;43.612;1.572;2022-08-01T04:08:44;99351.06;;;25.81;45.02
67738;BME280;54534;43.612;1.572;2022-08-01T04:11:20;99348.53;;;25.80;44.99
67738;BME280;54534;43.612;1.572;2022-08-01T04:13:46;99350.38;;;25.79;45.37
67738;BME280;54534;43.612;1.572;2022-08-01T04:16:11;99353.09;;;25.79;45.07
67738;BME280;54534;43.612;1.572;2022-08-01T04:18:37;99355.09;;;25.77;45.20
67738;BME280;54534;43.612;1.572;2022-08-01T04:21:02;99352.56;;;25.75;45.12
67738;BME280;54534;43.612;1.572;2022-08-01T04:23:30;99358.97;;;25.74;45.41
67738;BME280;54534;43.612;1.572;2022-08-01T04:25:57;99359.94;;;25.73;45.64
67738;BME280;54534;43.612;1.572;2022-08-01T04:28:24;99357.44;;;25.72;45.47
67738;BME280;54534;43.612;1.572;2022-08-01T04:30:54;99368.19;;;25.72;45.80
67738;BME280;54534;43.612;1.572;2022-08-01T04:33:21;99363.81;;;25.71;45.69
67738;BME280;54534;43.612;1.572;2022-08-01T04:35:48;99362.13;;;25.70;45.65
67738;BME280;54534;43.612;1.572;2022-08-01T04:38:18;99357.75;;;25.69;45.53
67738;BME280;54534;43.612;1.572;2022-08-01T04:40:44;99362.47;;;25.66;45.61
67738;BME280;54534;43.612;1.572;2022-08-01T04:43:13;99365.16;;;25.66;45.84
67738;BME280;54534;43.612;1.572;2022-08-01T04:45:40;99373.41;;;25.65;45.66
67738;BME280;54534;43.612;1.572;2022-08-01T04:48:06;99368.16;;;25.55;45.83
67738;BME280;54534;43.612;1.572;2022-08-01T04:50:34;99370.50;;;25.41;46.36
67738;BME280;54534;43.612;1.572;2022-08-01T04:53:02;99373.00;;;25.26;46.31
67738;BME280;54534;43.612;1.572;2022-08-01T04:55:28;99365.53;;;25.12;46.92
67738;BME280;54534;43.612;1.572;2022-08-01T04:57:53;99369.81;;;24.96;47.37
67738;BME280;54534;43.612;1.572;2022-08-01T05:00:19;99376.66;;;24.82;47.78
67738;BME280;54534;43.612;1.572;2022-08-01T05:02:44;99374.09;;;24.72;47.80
67738;BME280;54534;43.612;1.572;2022-08-01T05:05:10;99379.75;;;24.60;48.10
67738;BME280;54534;43.612;1.572;2022-08-01T05:07:36;99375.50;;;24.49;48.30
67738;BME280;54534;43.612;1.572;2022-08-01T05:10:03;99384.34;;;24.41;48.48
67738;BME280;54534;43.612;1.572;2022-08-01T05:12:29;99388.81;;;24.32;49.16
67738;BME280;54534;43.612;1.572;2022-08-01T05:14:57;99388.03;;;24.22;49.19
67738;BME280;54534;43.612;1.572;2022-08-01T05:17:22;99388.50;;;24.17;49.44
67738;BME280;54534;43.612;1.572;2022-08-01T05:19:47;99388.28;;;24.10;49.37
67738;BME280;54534;43.612;1.572;2022-08-01T05:22:13;99389.59;;;24.06;49.75
67738;BME280;54534;43.612;1.572;2022-08-01T05:24:39;99393.75;;;24.00;49.98
67738;BME280;54534;43.612;1.572;2022-08-01T05:27:06;99396.34;;;23.92;50.39
67738;BME280;54534;43.612;1.572;2022-08-01T05:29:33;99393.28;;;23.87;50.53
67738;BME280;54534;43.612;1.572;2022-08-01T05:31:59;99400.13;;;23.81;50.53
67738;BME280;54534;43.612;1.572;2022-08-01T05:34:24;99388.84;;;23.77;50.85
67738;BME280;54534;43.612;1.572;2022-08-01T05:36:50;99402.72;;;23.73;50.94
67738;BME280;54534;43.612;1.572;2022-08-01T05:39:15;99406.56;;;23.70;51.17
67738;BME280;54534;43.612;1.572;2022-08-01T05:41:41;99408.84;;;23.65;51.54
67738;BME280;54534;43.612;1.572;2022-08-01T05:44:07;99407.63;;;23.59;51.53
67738;BME280;54534;43.612;1.572;2022-08-01T05:46:35;99404.56;;;23.54;51.55
67738;BME280;54534;43.612;1.572;2022-08-01T05:49:01;99414.88;;;23.49;52.06
67738;BME280;54534;43.612;1.572;2022-08-01T05:51:27;99407.44;;;23.42;52.24
67738;BME280;54534;43.612;1.572;2022-08-01T05:53:53;99404.75;;;23.42;52.38
67738;BME280;54534;43.612;1.572;2022-08-01T05:56:20;99411.81;;;23.43;52.50
67738;BME280;54534;43.612;1.572;2022-08-01T05:58:45;99411.09;;;23.41;52.48
67738;BME280;54534;43.612;1.572;2022-08-01T06:01:11;99414.50;;;23.43;52.63
67738;BME280;54534;43.612;1.572;2022-08-01T06:03:37;99412.78;;;23.42;52.64
67738;BME280;54534;43.612;1.572;2022-08-01T06:06:03;99424.38;;;23.43;52.68
67738;BME280;54534;43.612;1.572;2022-08-01T06:08:29;99433.28;;;23.43;52.66
67738;BME280;54534;43.612;1.572;2022-08-01T06:10:54;99422.53;;;23.43;52.97
67738;BME280;54534;43.612;1.572;2022-08-01T06:13:20;99424.09;;;23.46;52.93
67738;BME280;54534;43.612;1.572;2022-08-01T06:15:46;99424.09;;;23.46;53.01
67738;BME280;54534;43.612;1.572;2022-08-01T06:18:12;99423.06;;;23.47;52.92
67738;BME280;54534;43.612;1.572;2022-08-01T06:20:37;99434.66;;;23.48;52.94
67738;BME280;54534;43.612;1.572;2022-08-01T06:23:03;99428.31;;;23.49;52.78
67738;BME280;54534;43.612;1.572;2022-08-01T06:25:29;99424.50;;;23.51;52.57
67738;BME280;54534;43.612;1.572;2022-08-01T06:27:54;99430.25;;;23.57;52.46
67738;BME280;54534;43.612;1.572;2022-08-01T06:30:20;99426.81;;;23.64;52.40
67738;BME280;54534;43.612;1.572;2022-08-01T06:32:45;99434.25;;;23.71;52.27
67738;BME280;54534;43.612;1.572;2022-08-01T06:35:11;99432.66;;;23.78;52.18
67738;BME280;54534;43.612;1.572;2022-08-01T06:37:36;99432.03;;;23.84;51.98
67738;BME280;54534;43.612;1.572;2022-08-01T06:40:08;99427.03;;;23.89;51.79
67738;BME280;54534;43.612;1.572;2022-08-01T06:42:34;99439.56;;;23.99;51.60
67738;BME280;54534;43.612;1.572;2022-08-01T06:45:04;99425.66;;;24.04;51.38
67738;BME280;54534;43.612;1.572;2022-08-01T06:47:30;99425.88;;;24.10;51.31
67738;BME280;54534;43.612;1.572;2022-08-01T06:49:56;99427.09;;;24.16;51.22
67738;BME280;54534;43.612;1.572;2022-08-01T06:52:21;99430.34;;;24.20;51.03
67738;BME280;54534;43.612;1.572;2022-08-01T06:54:46;99432.56;;;24.25;51.09
67738;BME280;54534;43.612;1.572;2022-08-01T06:57:12;99439.19;;;24.30;50.73
67738;BME280;54534;43.612;1.572;2022-08-01T06:59:37;99436.19;;;24.33;50.81
67738;BME280;54534;43.612;1.572;2022-08-01T07:02:03;99442.94;;;24.38;50.78
67738;BME280;54534;43.612;1.572;2022-08-01T07:04:29;99439.94;;;24.41;50.41
67738;BME280;54534;43.612;1.572;2022-08-01T07:06:55;99437.94;;;24.43;50.61
67738;BME280;54534;43.612;1.572;2022-08-01T07:09:20;99448.19;;;24.48;50.50
67738;BME280;54534;43.612;1.572;2022-08-01T07:11:45;99446.19;;;24.50;50.46
67738;BME280;54534;43.612;1.572;2022-08-01T07:14:11;99453.13;;;24.52;50.02
67738;BME280;54534;43.612;1.572;2022-08-01T07:16:36;99443.91;;;24.55;50.19
67738;BME280;54534;43.612;1.572;2022-08-01T07:19:01;99447.09;;;24.59;49.90
67738;BME280;54534;43.612;1.572;2022-08-01T07:21:27;99452.16;;;24.62;50.08
67738;BME280;54534;43.612;1.572;2022-08-01T07:23:52;99450.16;;;24.64;49.81
67738;BME280;54534;43.612;1.572;2022-08-01T07:26:18;99452.72;;;24.65;49.73
67738;BME280;54534;43.612;1.572;2022-08-01T07:28:43;99448.84;;;24.68;50.11
67738;BME280;54534;43.612;1.572;2022-08-01T07:31:08;99456.75;;;24.70;49.43
67738;BME280;54534;43.612;1.572;2022-08-01T07:33:34;99449.38;;;24.72;49.74
67738;BME280;54534;43.612;1.572;2022-08-01T07:35:59;99450.03;;;24.74;49.63
67738;BME280;54534;43.612;1.572;2022-08-01T07:38:25;99444.53;;;24.75;49.34
67738;BME280;54534;43.612;1.572;2022-08-01T07:40:51;99440.81;;;24.76;49.42
67738;BME280;54534;43.612;1.572;2022-08-01T07:43:16;99442.34;;;24.79;49.61
67738;BME280;54534;43.612;1.572;2022-08-01T07:45:42;99450.28;;;24.81;49.16
67738;BME280;54534;43.612;1.572;2022-08-01T07:48:07;99449.25;;;24.82;49.29
67738;BME280;54534;43.612;1.572;2022-08-01T07:50:33;99451.81;;;24.83;49.25
67738;BME280;54534;43.612;1.572;2022-08-01T07:52:59;99446.09;;;24.86;49.31
67738;BME280;54534;43.612;1.572;2022-08-01T07:55:25;99451.47;;;24.86;49.16
67738;BME280;54534;43.612;1.572;2022-08-01T07:57:51;99456.69;;;24.88;48.84
67738;BME280;54534;43.612;1.572;2022-08-01T08:00:17;99455.69;;;24.89;48.81
67738;BME280;54534;43.612;1.572;2022-08-01T08:02:43;99448.31;;;24.91;48.92
67738;BME280;54534;43.612;1.572;2022-08-01T08:05:10;99451.69;;;24.93;49.00
67738;BME280;54534;43.612;1.572;2022-08-01T08:07:36;99441.78;;;24.94;48.83
67738;BME280;54534;43.612;1.572;2022-08-01T08:10:02;99450.50;;;24.96;48.66
67738;BME280;54534;43.612;1.572;2022-08-01T08:12:28;99453.06;;;24.97;49.00
67738;BME280;54534;43.612;1.572;2022-08-01T08:14:53;99449.34;;;24.98;48.68
67738;BME280;54534;43.612;1.572;2022-08-01T08:17:19;99442.97;;;24.99;48.76
67738;BME280;54534;43.612;1.572;2022-08-01T08:19:44;99443.69;;;25.02;48.44
67738;BME280;54534;43.612;1.572;2022-08-01T08:22:10;99444.53;;;25.02;48.81
67738;BME280;54534;43.612;1.572;2022-08-01T08:24:36;99441.66;;;25.04;48.50
67738;BME280;54534;43.612;1.572;2022-08-01T08:27:02;99438.00;;;25.05;48.70
67738;BME280;54534;43.612;1.572;2022-08-01T08:29:30;99438.66;;;25.07;48.63
67738;BME280;54534;43.612;1.572;2022-08-01T08:31:57;99449.44;;;25.07;48.49
67738;BME280;54534;43.612;1.572;2022-08-01T08:34:23;99450.09;;;25.09;48.01
67738;BME280;54534;43.612;1.572;2022-08-01T08:36:49;99436.66;;;25.09;48.42
67738;BME280;54534;43.612;1.572;2022-08-01T08:39:16;99444.59;;;25.10;48.21
67738;BME280;54534;43.612;1.572;2022-08-01T08:41:41;99442.72;;;25.11;48.16
67738;BME280;54534;43.612;1.572;2022-08-01T08:44:08;99451.47;;;25.13;48.11
67738;BME280;54534;43.612;1.572;2022-08-01T08:46:40;99438.84;;;25.14;48.16
67738;BME280;54534;43.612;1.572;2022-08-01T08:49:08;99436.03;;;25.15;48.20
67738;BME280;54534;43.612;1.572;2022-08-01T08:51:35;99433.31;;;25.15;48.20
67738;BME280;54534;43.612;1.572;2022-08-01T08:54:03;99439.38;;;25.17;48.12
67738;BME280;54534;43.612;1.572;2022-08-01T08:56:30;99436.53;;;25.19;47.94
67738;BME280;54534;43.612;1.572;2022-08-01T08:58:59;99439.22;;;25.19;48.04
67738;BME280;54534;43.612;1.572;2022-08-01T09:01:25;99433.69;;;25.20;48.10
67738;BME280;54534;43.612;1.572;2022-08-01T09:03:50;99436.38;;;25.20;47.74
67738;BME280;54534;43.612;1.572;2022-08-01T09:06:17;99428.97;;;25.23;47.88
67738;BME280;54534;43.612;1.572;2022-08-01T09:08:42;99429.81;;;25.23;47.99
67738;BME280;54534;43.612;1.572;2022-08-01T09:11:07;99426.09;;;25.24;47.93
67738;BME280;54534;43.612;1.572;2022-08-01T09:13:33;99414.53;;;25.24;47.79
67738;BME280;54534;43.612;1.572;2022-08-01T09:15:58;99418.88;;;25.25;47.83
67738;BME280;54534;43.612;1.572;2022-08-01T09:18:38;99422.25;;;25.27;47.74
67738;BME280;54534;43.612;1.572;2022-08-01T09:21:09;99413.38;;;25.26;47.80
67738;BME280;54534;43.612;1.572;2022-08-01T09:26:08;99411.16;;;25.30;47.51
67738;BME280;54534;43.612;1.572;2022-08-01T09:28:34;99414.72;;;25.30;47.73
67738;BME280;54534;43.612;1.572;2022-08-01T09:31:06;99405.63;;;25.31;47.49
67738;BME280;54534;43.612;1.572;2022-08-01T09:33:59;99411.88;;;25.32;47.50
67738;BME280;54534;43.612;1.572;2022-08-01T09:36:49;99412.69;;;25.32;47.45
67738;BME280;54534;43.612;1.572;2022-08-01T09:39:20;99408.00;;;25.35;47.31
67738;BME280;54534;43.612;1.572;2022-08-01T09:41:47;99400.75;;;25.35;47.14
67738;BME280;54534;43.612;1.572;2022-08-01T09:44:14;99393.69;;;25.34;47.31
67738;BME280;54534;43.612;1.572;2022-08-01T09:46:55;99402.44;;;25.36;47.43
67738;BME280;54534;43.612;1.572;2022-08-01T09:49:30;99402.44;;;25.36;47.17
67738;BME280;54534;43.612;1.572;2022-08-01T09:51:57;99406.66;;;25.39;47.09
67738;BME280;54534;43.612;1.572;2022-08-01T09:54:33;99402.13;;;25.39;47.42
67738;BME280;54534;43.612;1.572;2022-08-01T09:57:10;99402.13;;;25.39;47.38
67738;BME280;54534;43.612;1.572;2022-08-01T09:59:37;99402.13;;;25.39;47.32
67738;BME280;54534;43.612;1.572;2022-08-01T10:02:05;99403.97;;;25.39;47.22
67738;BME280;54534;43.612;1.572;2022-08-01T10:04:30;99403.78;;;25.40;47.40
67738;BME280;54534;43.612;1.572;2022-08-01T10:07:05;99400.97;;;25.42;47.21
67738;BME280;54534;43.612;1.572;2022-08-01T10:09:33;99399.13;;;25.42;47.16
67738;BME280;54534;43.612;1.572;2022-08-01T10:12:00;99400.78;;;25.43;47.00
67738;BME280;54534;43.612;1.572;2022-08-01T10:14:26;99405.16;;;25.44;47.19
67738;BME280;54534;43.612;1.572;2022-08-01T10:16:53;99405.16;;;25.44;47.21
67738;BME280;54534;43.612;1.572;2022-08-01T10:19:26;99405.00;;;25.46;47.09
67738;BME280;54534;43.612;1.572;2022-08-01T10:21:53;99397.75;;;25.47;47.15
67738;BME280;54534;43.612;1.572;2022-08-01T10:24:20;99400.47;;;25.47;47.08
67738;BME280;54534;43.612;1.572;2022-08-01T10:26:51;99394.91;;;25.48;46.89
67738;BME280;54534;43.612;1.572;2022-08-01T10:29:19;99391.38;;;25.48;46.93
67738;BME280;54534;43.612;1.572;2022-08-01T10:31:48;99386.66;;;25.50;47.30
67738;BME280;54534;43.612;1.572;2022-08-01T10:34:15;99381.28;;;25.50;46.98
67738;BME280;54534;43.612;1.572;2022-08-01T10:36:44;99383.97;;;25.50;47.21
67738;BME280;54534;43.612;1.572;2022-08-01T10:39:11;99379.28;;;25.52;47.15
67738;BME280;54534;43.612;1.572;2022-08-01T10:41:38;99384.66;;;25.52;46.79
67738;BME280;54534;43.612;1.572;2022-08-01T10:44:06;99382.63;;;25.54;46.84
67738;BME280;54534;43.612;1.572;2022-08-01T10:46:32;99384.47;;;25.53;46.64
67738;BME280;54534;43.612;1.572;2022-08-01T10:49:20;99378.94;;;25.55;46.60
67738;BME280;54534;43.612;1.572;2022-08-01T10:51:47;99378.09;;;25.54;46.82
67738;BME280;54534;43.612;1.572;2022-08-01T10:54:13;99361.94;;;25.54;46.80
67738;BME280;54534;43.612;1.572;2022-08-01T10:56:43;99356.38;;;25.56;46.74
67738;BME280;54534;43.612;1.572;2022-08-01T10:59:09;99360.75;;;25.57;46.67
67738;BME280;54534;43.612;1.572;2022-08-01T11:01:35;99362.47;;;25.58;46.99
67738;BME280;54534;43.612;1.572;2022-08-01T11:06:52;99358.75;;;25.59;46.83
67738;BME280;54534;43.612;1.572;2022-08-01T11:09:23;99357.06;;;25.58;46.80
67738;BME280;54534;43.612;1.572;2022-08-01T11:20:09;99346.78;;;25.62;46.47
67738;BME280;54534;43.612;1.572;2022-08-01T11:41:33;99330.16;;;25.66;46.64
67738;BME280;54534;43.612;1.572;2022-08-01T11:44:07;99321.06;;;25.68;46.76
67738;BME280;54534;43.612;1.572;2022-08-01T11:47:05;99313.81;;;25.68;46.36
67738;BME280;54534;43.612;1.572;2022-08-01T11:52:08;99309.28;;;25.69;46.32
67738;BME280;54534;43.612;1.572;2022-08-01T11:54:55;99304.75;;;25.69;46.67
67738;BME280;54534;43.612;1.572;2022-08-01T11:57:27;99310.97;;;25.70;46.50
67738;BME280;54534;43.612;1.572;2022-08-01T11:59:57;99309.97;;;25.71;46.61
67738;BME280;54534;43.612;1.572;2022-08-01T12:02:24;99301.88;;;25.71;46.48
67738;BME280;54534;43.612;1.572;2022-08-01T12:07:21;99303.56;;;25.72;46.58
67738;BME280;54534;43.612;1.572;2022-08-01T12:09:47;99294.47;;;25.73;46.48
67738;BME280;54534;43.612;1.572;2022-08-01T12:12:16;99290.81;;;25.74;46.70
67738;BME280;54534;43.612;1.572;2022-08-01T12:14:43;99298.69;;;25.75;46.66
67738;BME280;54534;43.612;1.572;2022-08-01T12:17:09;99298.69;;;25.75;46.49
67738;BME280;54534;43.612;1.572;2022-08-01T12:19:35;99296.84;;;25.76;46.25
67738;BME280;54534;43.612;1.572;2022-08-01T12:22:22;99284.25;;;25.76;46.25
67738;BME280;54534;43.612;1.572;2022-08-01T12:24:47;99291.28;;;25.77;46.66
67738;BME280;54534;43.612;1.572;2022-08-01T12:27:24;99292.13;;;25.78;46.20
67738;BME280;54534;43.612;1.572;2022-08-01T12:29:49;99291.28;;;25.77;46.59
67738;BME280;54534;43.612;1.572;2022-08-01T12:32:27;99292.00;;;25.80;46.52
67738;BME280;54534;43.612;1.572;2022-08-01T12:34:54;99290.97;;;25.81;46.36
67738;BME280;54534;43.612;1.572;2022-08-01T12:37:20;99285.56;;;25.81;46.60
67738;BME280;54534;43.612;1.572;2022-08-01T12:39:46;99286.41;;;25.81;46.30
67738;BME280;54534;43.612;1.572;2022-08-01T12:42:12;99281.88;;;25.82;46.54
67738;BME280;54534;43.612;1.572;2022-08-01T12:44:39;99280.84;;;25.83;46.63
67738;BME280;54534;43.612;1.572;2022-08-01T12:47:08;99279.00;;;25.83;46.31
67738;BME280;54534;43.612;1.572;2022-08-01T12:49:37;99269.75;;;25.86;46.12
67738;BME280;54534;43.612;1.572;2022-08-01T12:52:03;99261.66;;;25.86;46.61
67738;BME280;54534;43.612;1.572;2022-08-01T12:54:29;99257.13;;;25.86;46.54
67738;BME280;54534;43.612;1.572;2022-08-01T12:56:54;99257.97;;;25.87;46.55
67738;BME280;54534;43.612;1.572;2022-08-01T12:59:22;99248.19;;;25.86;46.54
67738;BME280;54534;43.612;1.572;2022-08-01T13:01:50;99254.63;;;25.85;46.35
67738;BME280;54534;43.612;1.572;2022-08-01T13:04:15;99257.13;;;25.86;46.43
67738;BME280;54534;43.612;1.572;2022-08-01T13:06:41;99247.84;;;25.89;46.52
67738;BME280;54534;43.612;1.572;2022-08-01T13:09:10;99260.31;;;25.90;46.56
67738;BME280;54534;43.612;1.572;2022-08-01T13:11:36;99248.72;;;25.90;46.30
67738;BME280;54534;43.612;1.572;2022-08-01T13:14:02;99248.72;;;25.90;46.20
67738;BME280;54534;43.612;1.572;2022-08-01T13:16:27;99253.91;;;25.91;46.29
67738;BME280;54534;43.612;1.572;2022-08-01T13:18:54;99247.66;;;25.91;46.64
67738;BME280;54534;43.612;1.572;2022-08-01T13:21:30;99249.38;;;25.92;46.40
67738;BME280;54534;43.612;1.572;2022-08-01T13:24:04;99240.28;;;25.93;46.43
67738;BME280;54534;43.612;1.572;2022-08-01T13:26:49;99233.03;;;25.93;46.69
67738;BME280;54534;43.612;1.572;2022-08-01T13:29:22;99233.03;;;25.93;46.19
67738;BME280;54534;43.612;1.572;2022-08-01T13:31:53;99232.03;;;25.94;46.23
67738;BME280;54534;43.612;1.572;2022-08-01T13:34:29;99231.84;;;25.96;46.61
67738;BME280;54534;43.612;1.572;2022-08-01T13:36:54;99227.47;;;25.95;46.38
67738;BME280;54534;43.612;1.572;2022-08-01T13:39:20;99231.69;;;25.97;46.47
67738;BME280;54534;43.612;1.572;2022-08-01T13:42:04;99231.84;;;25.96;46.26
67738;BME280;54534;43.612;1.572;2022-08-01T13:44:30;99226.28;;;25.97;46.65
67738;BME280;54534;43.612;1.572;2022-08-01T13:46:55;99215.53;;;25.97;46.52